Menu       Home   X °F

Select another period ( hide this area )

Units Period Custom range Directly to
Metric English Both
Daily Weekly Monthly Yearly
use both date-selectors for a custom range
previous Day
With this date
Daily Summary for Wednesday 12 June 2024
Time Temp. ( °F ) Dew pt. ( °F ) Wind ( mph ) From Gust ( mph ) Pressure ( in ) Humid.( % ) Rainrate ( in )
High82.6 69.1 3.0 SSE ( 59/103 ) 5.0 29.99 99 -
Average67.8 60.9 0.4 Calm #184/264 0.5 30.00 81 -
Low52.7 52.3 -   0.0 29.92 53 -
Daily Tabular details for Wednesday 12 June 2024
Time Temp. ( °F ) Dew pt. ( °F ) Wind ( mph ) From Gust ( mph ) Pressure ( in ) Humid.( % ) Rainrate ( in )
00:04 58.8 57.0   Calm   29.94 94 -
00:09 58.6 56.8   Calm   29.93 94 -
00:14 58.5 56.7   Calm   29.94 94 -
00:19 58.3 56.5   Calm   29.94 94 -
00:24 58.3 56.8   Calm   29.94 95 -
00:29 58.1 56.7   Calm   29.94 95 -
00:34 58.1 56.7   Calm   29.94 95 -
00:39 57.9 56.5   Calm   29.94 95 -
00:44 57.7 56.3   Calm   29.94 95 -
00:49 57.7 56.3   Calm   29.94 95 -
00:54 57.6 56.1   Calm   29.94 95 -
00:59 57.4 55.9   Calm   29.94 95 -
01:04 57.4 55.9   Calm   29.94 95 -
01:09 57.2 56.1   Calm   29.94 96 -
01:14 57.2 56.1   Calm   29.94 96 -
01:19 57.0 55.9   Calm   29.94 96 -
01:24 57.0 55.9   Calm   29.94 96 -
01:29 56.8 55.8   Calm   29.94 96 -
01:34 56.7 55.6   Calm   29.93 96 -
01:39 56.7 55.6   Calm   29.94 96 -
01:44 56.7 55.6   Calm   29.93 96 -
01:49 56.5 55.4   Calm   29.93 96 -
01:54 56.3 55.2   Calm   29.93 96 -
01:59 56.1 55.0   Calm   29.93 96 -
02:04 56.1 55.0   Calm   29.93 96 -
02:09 55.9 54.9   Calm   29.93 96 -
02:14 55.6 54.5   Calm   29.93 96 -
02:19 55.6 54.9   Calm   29.93 97 -
02:24 55.6 54.9   Calm   29.93 97 -
02:29 55.6 54.9   Calm   29.93 97 -
02:34 55.4 54.7   Calm   29.93 97 -
02:39 55.4 54.7   Calm   29.93 97 -
02:44 55.4 54.7   Calm   29.93 97 -
02:49 55.2 54.5   Calm   29.94 97 -
02:54 55.0 54.3   Calm   29.93 97 -
02:59 55.4 54.7   Calm   29.93 97 -
03:04 55.4 54.9   Calm   29.93 98 -
03:09 55.4 54.9   Calm   29.93 98 -
03:14 55.0 54.5   Calm   29.93 98 -
03:19 54.9 54.3   Calm   29.93 98 -
03:24 54.9 54.3   Calm   29.93 98 -
03:29 54.7 54.1   Calm   29.94 98 -
03:34 54.5 54.0   Calm 1.0 29.93 98 -
03:39 54.3 53.8   Calm   29.94 98 -
03:44 54.3 53.8   Calm   29.93 98 -
03:49 54.3 53.8   Calm   29.93 98 -
03:54 54.1 53.6   Calm   29.93 98 -
03:59 54.1 53.6   Calm   29.93 98 -
04:04 54.1 53.6   Calm   29.93 98 -
04:09 54.0 53.4   Calm   29.93 98 -
04:14 54.0 53.4   Calm   29.93 98 -
04:19 53.8 53.2   Calm   29.93 98 -
04:24 53.8 53.2   Calm   29.94 98 -
04:29 53.8 53.2   Calm   29.94 98 -
04:34 53.8 53.2   Calm   29.94 98 -
04:39 53.4 52.9   Calm   29.93 98 -
04:44 53.4 53.1   Calm   29.94 99 -
04:49 53.8 53.4   Calm   29.94 99 -
04:54 53.8 53.4   Calm   29.94 99 -
04:59 53.8 53.4   Calm   29.94 99 -
05:04 53.6 53.2   Calm   29.94 99 -
05:09 53.8 53.4   Calm   29.94 99 -
05:14 53.8 53.4   Calm   29.94 99 -
05:19 53.6 53.2   Calm   29.94 99 -
05:24 53.4 53.1   Calm   29.95 99 -
05:29 53.2 52.9   Calm   29.95 99 -
05:34 53.2 52.9   Calm   29.95 99 -
05:39 53.2 52.9   Calm   29.95 99 -
05:44 53.2 52.9   Calm   29.96 99 -
05:49 53.1 52.7   Calm   29.95 99 -
05:54 53.1 52.7   Calm   29.95 99 -
05:59 52.9 52.5   Calm   29.96 99 -
06:04 52.9 52.5   Calm   29.95 99 -
06:09 52.9 52.5   Calm   29.96 99 -
06:14 52.9 52.5   Calm   29.96 99 -
06:19 52.9 52.5   Calm   29.96 99 -
06:24 52.9 52.5   Calm   29.96 99 -
06:29 52.9 52.5   Calm   29.97 99 -
06:34 52.9 52.5   Calm   29.97 99 -
06:39 52.7 52.3   Calm   29.97 99 -
06:44 52.7 52.3   Calm   29.97 99 -
06:49 52.7 52.3   Calm   29.97 99 -
06:54 52.7 52.3   Calm   29.97 99 -
06:59 52.7 52.3   Calm   29.97 99 -
07:04 52.7 52.3   Calm   29.97 99 -
07:09 52.7 52.3   Calm   29.97 99 -
07:14 52.7 52.3   Calm   29.97 99 -
07:19 53.1 52.7   Calm   29.97 99 -
07:24 53.6 53.2   Calm   29.98 99 -
07:29 53.8 53.4   Calm   29.98 99 -
07:34 54.0 53.6   Calm   29.98 99 -
07:39 54.1 53.8   Calm   29.98 99 -
07:44 54.5 54.1   Calm   29.98 99 -
07:49 54.9 54.5   Calm   29.98 99 -
07:54 55.2 54.9   Calm   29.99 99 -
07:59 55.6 55.2   Calm   29.98 99 -
08:04 56.1 55.6   Calm   29.99 99 -
08:09 56.5 55.9   Calm   29.98 98 -
08:14 57.0 56.1   Calm   29.99 97 -
08:19 57.6 56.3   Calm   29.98 96 -
08:24 58.3 56.7   Calm   29.99 95 -
08:29 59.0 56.8   Calm   29.98 93 -
08:34 59.7 57.4   Calm   29.98 92 -
08:39 60.1 57.6   Calm   29.98 92 -
08:44 60.8 57.9   Calm   29.98 90 -
08:49 61.3 58.5   Calm   29.98 90 -
08:54 61.5 59.0   Calm   29.99 91 -
08:59 62.1 59.4   Calm   29.98 91 -
09:04 63.0 59.0   Calm   29.98 88 -
09:09 63.7 59.4   Calm   29.98 86 -
09:14 64.0 59.5   Calm   29.98 86 -
09:19 64.6 59.9   Calm 1.0 29.98 85 -
09:24 64.9 60.1   Calm 1.0 29.98 85 -
09:29 65.7 61.3   Calm   29.98 86 -
09:34 66.4 61.2   Calm   29.98 84 -
09:39 67.1 61.9   Calm   29.97 83 -
09:44 67.6 61.9   Calm   29.98 82 -
09:49 68.4 62.1   Calm   29.98 81 -
09:54 68.9 63.1   Calm   29.98 82 -
09:59 69.4 63.5   Calm   29.98 82 -
10:04 69.8 63.7 1.0 SSE 1.0 29.98 82 -
10:09 70.5 63.3   Calm   29.98 80 -
10:14 71.2 63.7   Calm   29.98 78 -
10:19 71.8 63.9 1.0 SSE 1.0 29.98 77 -
10:24 72.3 65.3   Calm   29.98 79 -
10:29 72.7 65.7   Calm 1.0 29.98 79 -
10:34 73.2 65.5   Calm 1.0 29.98 77 -
10:39 73.8 65.5 1.0 SSE 1.0 29.98 76 -
10:44 73.9 65.7   Calm 1.0 29.98 75 -
10:49 74.3 66.2 1.0 SSE 1.0 29.98 77 -
10:54 75.0 65.8 2.0 SSE 2.0 29.97 73 -
10:59 75.4 66.6 1.0 SSE 1.0 29.98 75 -
11:04 75.9 67.1 1.0 SSE 1.0 29.98 74 -
11:09 76.3 67.5 3.0 SSE 3.0 29.98 75 -
11:14 76.6 65.3 2.0 SSE 2.0 29.98 68 -
11:19 77.0 65.8 2.0 SSE 2.0 29.98 69 -
11:24 77.2 63.0 2.0 SSE 2.0 29.98 62 -
11:29 77.7 64.4 1.0 SSE 1.0 29.98 64 -
11:34 78.4 64.6 1.0 SSE 2.0 29.97 63 -
11:39 78.4 63.5 1.0 SSE 1.0 29.97 60 -
11:44 77.9 64.6 1.0 SSE 1.0 29.97 64 -
11:49 78.3 65.7 1.0 SSE 1.0 29.97 65 -
11:54 78.3 65.1 2.0 SSE 2.0 29.97 64 -
11:59 77.2 64.2 1.0 SSE 1.0 29.97 65 -
12:04 78.6 64.9 1.0 SSE 1.0 29.97 66 -
12:09 79.3 65.7 1.0 SSE 2.0 29.97 64 -
12:14 79.3 64.6 2.0 SSE 2.0 29.98 61 -
12:19 78.8 62.4 2.0 SSE 2.0 29.97 57 -
12:24 79.2 62.8 1.0 SSE 1.0 29.97 58 -
12:29 79.2 61.2 1.0 SSE 1.0 29.97 54 -
12:34 79.2 63.5   Calm 1.0 29.97 59 -
12:39 79.9 64.2 1.0 SSE 2.0 29.97 60 -
12:44 80.1 65.5 1.0 SSE 2.0 29.97 61 -
12:49 79.7 64.4 2.0 SSE 2.0 29.97 61 -
12:54 81.0 63.7 3.0 SSE 3.0 29.96 56 -
12:59 81.5 65.3 1.0 SSE 2.0 29.97 58 -
13:04 80.8 63.1 1.0 SSE 2.0 29.97 55 -
13:09 80.8 64.6 1.0 SSE 2.0 29.97 58 -
13:14 80.6 63.9 2.0 SSE 2.0 29.97 57 -
13:19 80.6 63.5 1.0 SSE 2.0 29.97 56 -
13:24 81.5 64.8 1.0 SSE 2.0 29.96 57 -
13:29 81.5 63.9 1.0 SSE 2.0 29.96 55 -
13:34 81.5 64.0 1.0 SSE 1.0 29.96 56 -
13:39 80.8 63.1   Calm   29.96 55 -
13:44 80.6 64.4 1.0 SSE 1.0 29.96 60 -
13:49 79.2 64.2 1.0 SSE 1.0 29.96 60 -
13:54 79.9 63.1 2.0 SSE 2.0 29.96 58 -
13:59 80.4 62.8 2.0 SSE 2.0 29.96 55 -
14:04 81.9 64.8 1.0 SSE 2.0 29.95 56 -
14:09 82.0 63.9 3.0 SSE 5.0 29.95 54 -
14:14 82.0 63.3 1.0 South 2.0 29.95 53 -
14:19 81.9 64.8 1.0 South 1.0 29.95 57 -
14:24 81.0 64.6 1.0 South 1.0 29.95 58 -
14:29 79.9 63.9 2.0 South 2.0 29.95 58 -
14:34 80.8 63.5 1.0 South 2.0 29.95 57 -
14:39 80.8 64.2 1.0 South 2.0 29.95 58 -
14:44 80.2 64.9 1.0 South 1.0 29.94 60 -
14:49 80.8 63.1 1.0 South 2.0 29.94 55 -
14:54 80.6 63.3 1.0 South 1.0 29.95 56 -
14:59 79.5 64.9 1.0 South 1.0 29.94 62 -
15:04 79.7 65.1 1.0 South 1.0 29.94 62 -
15:09 80.2 63.7 2.0 South 2.0 29.94 57 -
15:14 81.5 64.4 1.0 South 1.0 29.94 57 -
15:19 82.6 65.3 1.0 South 1.0 29.94 56 -
15:24 82.4 63.7 1.0 South 1.0 29.93 53 -
15:29 82.2 63.5 1.0 South 1.0 29.94 53 -
15:34 82.0 65.5 1.0 South 1.0 29.94 59 -
15:39 80.6 65.5   Calm 1.0 29.94 60 -
15:44 80.1 65.5 1.0 South 1.0 29.94 61 -
15:49 80.4 65.7 1.0 South 1.0 29.93 62 -
15:54 80.4 64.6 1.0 South 1.0 29.93 59 -
15:59 80.6 64.6 1.0 South 1.0 29.94 58 -
16:04 81.1 66.0   Calm   29.94 60 -
16:09 81.1 65.7 1.0 South 1.0 29.93 60 -
16:14 81.5 66.2 1.0 South 1.0 29.93 61 -
16:19 81.5 65.5 2.0 South 2.0 29.94 59 -
16:24 81.0 64.8 1.0 South 1.0 29.93 58 -
16:29 81.0 64.4 2.0 South 2.0 29.94 57 -
16:34 80.6 64.8 1.0 South 2.0 29.93 59 -
16:39 80.1 65.5   Calm 1.0 29.93 61 -
16:44 80.2 65.8 1.0 South 1.0 29.93 62 -
16:49 81.0 65.8 1.0 South 1.0 29.93 61 -
16:54 81.9 65.3 1.0 South 1.0 29.93 59 -
16:59 82.0 66.2 2.0 South 2.0 29.93 59 -
17:04 81.1 66.0 1.0 South 2.0 29.93 61 -
17:09 80.2 66.2   Calm 1.0 29.93 63 -
17:14 79.5 66.2   Calm 1.0 29.93 64 -
17:19 79.3 65.8   Calm 1.0 29.93 64 -
17:24 78.8 66.4   Calm   29.93 66 -
17:29 78.4 66.9   Calm   29.93 69 -
17:34 77.5 66.9   Calm   29.92 70 -
17:39 77.5 66.7   Calm 1.0 29.93 70 -
17:44 77.7 66.4 1.0 South 1.0 29.93 68 -
17:49 77.9 67.8 1.0 South 1.0 29.92 71 -
17:54 78.3 68.7 1.0 South 1.0 29.92 73 -
17:59 78.4 69.1 2.0 South 2.0 29.93 73 -
18:04 78.8 68.4 1.0 South 2.0 29.92 71 -
18:09 78.8 67.8   Calm 1.0 29.92 69 -
18:14 79.2 65.7 1.0 South 1.0 29.92 64 -
18:19 79.3 65.1   Calm 1.0 29.93 62 -
18:24 79.2 64.8   Calm   29.93 62 -
18:29 78.8 66.0   Calm 1.0 29.92 66 -
18:34 77.9 65.5   Calm   29.93 66 -
18:39 77.7 65.3   Calm   29.93 66 -
18:44 77.4 65.5   Calm   29.93 67 -
18:49 77.0 65.7   Calm   29.93 68 -
18:54 77.0 66.0   Calm   29.93 69 -
18:59 77.0 66.4   Calm   29.93 70 -
19:04 76.6 67.8   Calm   29.92 74 -
19:09 76.5 68.0   Calm   29.93 76 -
19:14 75.7 67.6   Calm 1.0 29.93 76 -
19:19 75.2 68.2   Calm   29.93 79 -
19:24 75.0 67.6   Calm   29.93 78 -
19:29 74.8 67.8   Calm   29.93 79 -
19:34 74.7 68.2   Calm   29.93 81 -
19:39 74.5 68.4   Calm   29.94 82 -
19:44 74.3 68.4   Calm   29.94 82 -
19:49 74.1 68.5   Calm   29.94 83 -
19:54 73.9 68.7   Calm   29.94 84 -
19:59 73.8 68.7   Calm   29.94 84 -
20:04 73.6 68.7   Calm   29.94 85 -
20:09 73.6 68.7   Calm   29.93 85 -
20:14 73.4 68.7   Calm   29.94 85 -
20:19 73.2 68.5   Calm   29.94 86 -
20:24 73.0 68.5   Calm   29.94 86 -
20:29 72.7 68.4   Calm   29.94 87 -
20:34 72.5 68.4   Calm   29.94 87 -
20:39 72.3 68.4   Calm   29.94 88 -
20:44 72.1 68.4   Calm   29.94 88 -
20:49 71.6 67.8   Calm   29.94 88 -
20:54 71.4 68.0   Calm   29.94 89 -
20:59 71.2 67.8   Calm   29.94 90 -
21:04 70.9 67.8   Calm   29.94 90 -
21:09 70.3 67.3   Calm   29.94 90 -
21:14 70.2 67.1   Calm   29.94 90 -
21:19 70.0 67.3   Calm   29.95 91 -
21:24 69.8 67.1   Calm   29.95 91 -
21:29 69.6 67.1   Calm   29.95 92 -
21:34 69.4 67.1   Calm   29.94 92 -
21:39 69.3 66.9   Calm   29.95 92 -
21:44 68.9 66.7   Calm   29.95 93 -
21:49 68.7 66.6   Calm   29.95 93 -
21:54 68.5 66.4   Calm   29.95 93 -
21:59 68.4 66.4   Calm   29.95 94 -

Download your copy of this data-set  from WeatherUnderground

Our weather-data as stored at Weather Underground

Original Weather Page

My Ham Radio Page